createdAt,value
2018-10-11T00:00:31.619Z,989.05
2018-10-11T00:01:31.766Z,989.02
2018-10-11T00:02:31.918Z,989.03
2018-10-11T00:03:32.064Z,989.04
2018-10-11T00:04:32.220Z,988.99
2018-10-11T00:05:32.369Z,989.01
2018-10-11T00:06:32.519Z,989.00
2018-10-11T00:07:32.669Z,988.99
2018-10-11T00:08:32.819Z,989.01
2018-10-11T00:09:32.967Z,989.02
2018-10-11T00:10:33.119Z,989.08
2018-10-11T00:11:33.268Z,989.10
2018-10-11T00:12:33.414Z,989.07
2018-10-11T00:13:33.564Z,989.06
2018-10-11T00:14:33.714Z,989.08
2018-10-11T00:15:33.863Z,989.08
2018-10-11T00:16:34.013Z,989.08
2018-10-11T00:17:34.167Z,989.04
2018-10-11T00:18:34.309Z,989.04
2018-10-11T00:19:34.467Z,989.00
2018-10-11T00:20:34.616Z,988.98
2018-10-11T00:21:34.765Z,988.97
2018-10-11T00:22:34.915Z,989.01
2018-10-11T00:23:35.065Z,989.04
2018-10-11T00:24:35.217Z,989.00
2018-10-11T00:25:35.372Z,989.03
2018-10-11T00:26:35.516Z,989.05
2018-10-11T00:27:35.668Z,989.07
2018-10-11T00:28:35.817Z,989.04
2018-10-11T00:29:35.967Z,989.09
2018-10-11T00:30:36.128Z,989.08
2018-10-11T00:31:36.267Z,989.09
2018-10-11T00:32:36.415Z,989.08
2018-10-11T00:33:36.570Z,989.05
2018-10-11T00:34:36.745Z,989.02
2018-10-11T00:35:36.866Z,989.00
2018-10-11T00:36:37.013Z,989.01
2018-10-11T00:37:37.163Z,989.01
2018-10-11T00:38:37.313Z,989.01
2018-10-11T00:39:37.460Z,989.01
2018-10-11T00:40:37.609Z,989.00
2018-10-11T00:41:37.759Z,989.02
2018-10-11T00:42:37.909Z,989.00
2018-10-11T00:43:38.058Z,989.02
2018-10-11T00:44:38.207Z,989.02
2018-10-11T00:45:38.358Z,988.99
2018-10-11T00:46:38.510Z,988.96
2018-10-11T00:47:38.661Z,988.96
2018-10-11T00:48:38.808Z,988.95
2018-10-11T00:49:38.964Z,988.93
2018-10-11T00:50:39.109Z,988.88
2018-10-11T00:51:39.259Z,988.87
2018-10-11T00:52:39.410Z,988.82
2018-10-11T00:53:39.560Z,988.78
2018-10-11T00:54:39.707Z,988.80
2018-10-11T00:55:39.856Z,988.72
2018-10-11T00:56:40.008Z,988.74
2018-10-11T00:57:40.157Z,988.73
2018-10-11T00:58:40.307Z,988.70
2018-10-11T00:59:40.458Z,988.76
2018-10-11T01:00:40.605Z,988.75
2018-10-11T01:01:40.756Z,988.74
2018-10-11T01:02:40.906Z,988.73
2018-10-11T01:03:41.059Z,988.74
2018-10-11T01:04:41.203Z,988.72
2018-10-11T01:05:41.354Z,988.70
2018-10-11T01:06:41.502Z,988.69
2018-10-11T01:07:41.653Z,988.69
2018-10-11T01:08:41.802Z,988.69
2018-10-11T01:09:41.952Z,988.68
2018-10-11T01:10:42.102Z,988.64
2018-10-11T01:11:42.251Z,988.72
2018-10-11T01:12:42.400Z,988.74
2018-10-11T01:13:42.548Z,988.73
2018-10-11T01:14:42.698Z,988.71
2018-10-11T01:15:42.851Z,988.72
2018-10-11T01:16:43.001Z,988.75
2018-10-11T01:17:43.146Z,988.68
2018-10-11T01:18:43.300Z,988.63
2018-10-11T01:19:43.446Z,988.63
2018-10-11T01:20:43.595Z,988.65
2018-10-11T01:21:43.751Z,988.65
2018-10-11T01:22:43.897Z,988.67
2018-10-11T01:23:44.073Z,988.71
2018-10-11T01:24:44.198Z,988.69
2018-10-11T01:25:44.345Z,988.69
2018-10-11T01:26:44.492Z,988.70
2018-10-11T01:27:44.641Z,988.65
2018-10-11T01:28:44.792Z,988.64
2018-10-11T01:29:45.056Z,988.66
2018-10-11T01:30:45.091Z,988.67
2018-10-11T01:31:45.242Z,988.62
2018-10-11T01:32:45.391Z,988.63
2018-10-11T01:33:45.542Z,988.59
2018-10-11T01:34:45.691Z,988.57
2018-10-11T01:35:45.838Z,988.51
2018-10-11T01:36:45.989Z,988.48
2018-10-11T01:37:46.138Z,988.48
2018-10-11T01:38:46.293Z,988.51
2018-10-11T01:39:46.438Z,988.50
2018-10-11T01:40:46.588Z,988.55
2018-10-11T01:41:46.737Z,988.56
2018-10-11T01:42:46.887Z,988.58
2018-10-11T01:43:47.035Z,988.53
2018-10-11T01:44:47.186Z,988.55
2018-10-11T01:45:47.335Z,988.52
2018-10-11T01:46:47.481Z,988.42
2018-10-11T01:47:47.632Z,988.41
2018-10-11T01:48:47.784Z,988.39
2018-10-11T01:49:47.931Z,988.40
2018-10-11T01:50:48.083Z,988.36
2018-10-11T01:51:48.228Z,988.34
2018-10-11T01:52:48.378Z,988.35
2018-10-11T01:53:48.528Z,988.29
2018-10-11T01:54:48.677Z,988.28
2018-10-11T01:55:48.829Z,988.24
2018-10-11T01:56:49.067Z,988.21
2018-10-11T01:57:49.124Z,988.17
2018-10-11T01:58:49.273Z,988.18
2018-10-11T01:59:49.424Z,988.16
2018-10-11T02:00:49.574Z,988.11
2018-10-11T02:01:49.724Z,988.13
2018-10-11T02:02:49.872Z,988.14
2018-10-11T02:03:50.020Z,988.19
2018-10-11T02:04:50.170Z,988.25
2018-10-11T02:05:50.327Z,988.28
2018-10-11T02:06:50.469Z,988.26
2018-10-11T02:07:50.620Z,988.34
2018-10-11T02:08:50.768Z,988.28
2018-10-11T02:09:50.921Z,988.28
2018-10-11T02:10:51.068Z,988.25
2018-10-11T02:11:51.216Z,988.21
2018-10-11T02:12:51.367Z,988.27
2018-10-11T02:13:51.516Z,988.17
2018-10-11T02:14:51.663Z,988.16
2018-10-11T02:15:51.814Z,988.15
2018-10-11T02:16:51.962Z,988.19
2018-10-11T02:17:52.116Z,988.19
2018-10-11T02:18:52.265Z,988.20
2018-10-11T02:19:52.414Z,988.21
2018-10-11T02:20:52.562Z,988.19
2018-10-11T02:21:52.711Z,988.25
2018-10-11T02:22:52.859Z,988.23
2018-10-11T02:23:53.011Z,988.21
2018-10-11T02:24:53.163Z,988.23
2018-10-11T02:25:53.310Z,988.23
2018-10-11T02:26:53.460Z,988.15
2018-10-11T02:27:53.610Z,988.17
2018-10-11T02:28:53.758Z,988.17
2018-10-11T02:29:53.908Z,988.14
2018-10-11T02:30:54.061Z,988.15
2018-10-11T02:31:54.257Z,988.15
2018-10-11T02:32:54.362Z,988.15
2018-10-11T02:33:54.507Z,988.14
2018-10-11T02:34:54.657Z,988.09
2018-10-11T02:35:54.806Z,988.08
2018-10-11T02:36:54.966Z,988.08
2018-10-11T02:37:55.124Z,988.12
2018-10-11T02:38:55.256Z,988.09
2018-10-11T02:39:55.405Z,988.08
2018-10-11T02:40:55.553Z,988.10
2018-10-11T02:41:55.704Z,988.12
2018-10-11T02:42:55.857Z,988.12
2018-10-11T02:43:56.004Z,988.08
2018-10-11T02:44:56.155Z,988.07
2018-10-11T02:45:56.302Z,988.07
2018-10-11T02:46:56.453Z,988.05
2018-10-11T02:47:56.602Z,988.04
2018-10-11T02:48:56.755Z,988.08
2018-10-11T02:49:56.900Z,988.07
2018-10-11T02:50:57.050Z,988.08
2018-10-11T02:51:57.199Z,988.08
2018-10-11T02:52:57.349Z,988.10
2018-10-11T02:53:57.496Z,988.16
2018-10-11T02:54:57.650Z,988.15
2018-10-11T02:55:57.807Z,988.20
2018-10-11T02:56:57.949Z,988.17
2018-10-11T02:57:58.096Z,988.18
2018-10-11T02:58:58.246Z,988.23
2018-10-11T02:59:58.395Z,988.19
2018-10-11T03:00:58.545Z,988.20
2018-10-11T03:01:58.698Z,988.13
2018-10-11T03:02:58.846Z,988.12
2018-10-11T03:03:58.997Z,988.12
2018-10-11T03:04:59.140Z,988.10
2018-10-11T03:05:59.287Z,988.09
2018-10-11T03:06:59.437Z,988.13
2018-10-11T03:07:59.586Z,988.10
2018-10-11T03:08:59.742Z,988.12
2018-10-11T03:09:59.888Z,988.12
2018-10-11T03:11:00.038Z,988.14
2018-10-11T03:12:00.185Z,988.12
2018-10-11T03:13:00.332Z,988.12
2018-10-11T03:14:00.487Z,988.16
2018-10-11T03:15:00.638Z,988.16
2018-10-11T03:16:00.783Z,988.19
2018-10-11T03:17:00.938Z,988.22
2018-10-11T03:18:01.084Z,988.19
2018-10-11T03:19:01.241Z,988.21
2018-10-11T03:20:01.383Z,988.23
2018-10-11T03:21:01.546Z,988.20
2018-10-11T03:22:01.680Z,988.20
2018-10-11T03:23:01.832Z,988.17
2018-10-11T03:24:01.979Z,988.14
2018-10-11T03:25:02.131Z,988.13
2018-10-11T03:26:02.283Z,988.13
2018-10-11T03:27:02.428Z,988.12
2018-10-11T03:28:02.577Z,988.09
2018-10-11T03:29:02.727Z,988.16
2018-10-11T03:30:02.875Z,988.12
2018-10-11T03:31:03.028Z,988.16
2018-10-11T03:32:03.178Z,988.21
2018-10-11T03:33:03.328Z,988.16
2018-10-11T03:34:03.477Z,988.17
2018-10-11T03:35:03.626Z,988.19
2018-10-11T03:36:03.776Z,988.15
2018-10-11T03:37:03.927Z,988.11
2018-10-11T03:38:04.076Z,988.10
2018-10-11T03:39:04.226Z,988.05
2018-10-11T03:40:04.377Z,988.03
2018-10-11T03:41:04.527Z,988.01
2018-10-11T03:42:04.677Z,988.09
2018-10-11T03:43:04.825Z,988.08
2018-10-11T03:44:04.975Z,988.09
2018-10-11T03:45:05.123Z,988.06
2018-10-11T03:46:05.275Z,988.09
2018-10-11T03:47:05.425Z,988.12
2018-10-11T03:48:05.573Z,988.12
2018-10-11T03:49:05.725Z,988.08
2018-10-11T03:50:05.873Z,988.07
2018-10-11T03:51:06.021Z,988.07
2018-10-11T03:52:06.172Z,988.00
2018-10-11T03:53:06.325Z,987.99
2018-10-11T03:54:06.472Z,987.97
2018-10-11T03:55:06.627Z,987.98
2018-10-11T03:56:06.776Z,988.01
2018-10-11T03:57:06.960Z,988.04
2018-10-11T03:58:07.108Z,988.04
2018-10-11T03:59:07.259Z,988.04
2018-10-11T04:00:07.408Z,988.07
2018-10-11T04:01:07.557Z,988.06
2018-10-11T04:02:07.706Z,988.08
2018-10-11T04:03:07.855Z,988.07
2018-10-11T04:04:08.010Z,988.06
2018-10-11T04:05:08.158Z,988.05
2018-10-11T04:06:08.306Z,988.04
2018-10-11T04:07:08.453Z,988.05
2018-10-11T04:08:08.603Z,988.08
2018-10-11T04:09:08.755Z,988.06
2018-10-11T04:10:08.905Z,988.05
2018-10-11T04:11:09.052Z,988.04
2018-10-11T04:12:09.202Z,988.01
2018-10-11T04:13:09.354Z,988.00
2018-10-11T04:14:09.501Z,988.02
2018-10-11T04:15:09.651Z,988.05
2018-10-11T04:16:09.802Z,988.03
2018-10-11T04:17:09.948Z,988.03
2018-10-11T04:18:10.098Z,987.96
2018-10-11T04:19:10.248Z,988.03
2018-10-11T04:20:10.397Z,988.01
2018-10-11T04:21:10.547Z,988.05
2018-10-11T04:22:10.700Z,988.07
2018-10-11T04:23:10.848Z,988.06
2018-10-11T04:24:10.999Z,988.06
2018-10-11T04:25:11.147Z,988.03
2018-10-11T04:26:11.297Z,988.04
2018-10-11T04:27:11.452Z,988.05
2018-10-11T04:28:11.597Z,988.05
2018-10-11T04:29:11.747Z,988.08
2018-10-11T04:30:11.948Z,988.08
2018-10-11T04:31:12.048Z,988.07
2018-10-11T04:32:12.198Z,988.08
2018-10-11T04:33:12.345Z,988.05
2018-10-11T04:34:12.496Z,988.07
2018-10-11T04:35:12.645Z,988.03
2018-10-11T04:36:12.814Z,988.00
2018-10-11T04:37:12.945Z,988.02
2018-10-11T04:38:13.097Z,987.99
2018-10-11T04:39:13.248Z,988.00
2018-10-11T04:40:13.398Z,988.03
2018-10-11T04:41:13.545Z,988.01
2018-10-11T04:42:13.698Z,987.97
2018-10-11T04:43:14.031Z,987.97
2018-10-11T04:44:13.991Z,987.91
2018-10-11T04:45:14.143Z,987.89
2018-10-11T04:46:14.292Z,987.90
2018-10-11T04:47:14.441Z,987.88
2018-10-11T04:48:14.589Z,987.92
2018-10-11T04:49:14.739Z,987.90
2018-10-11T04:50:14.888Z,987.93
2018-10-11T04:51:15.037Z,987.98
2018-10-11T04:52:15.186Z,987.99
2018-10-11T04:53:15.336Z,987.92
2018-10-11T04:54:15.490Z,987.98
2018-10-11T04:55:15.637Z,987.98
2018-10-11T04:56:15.787Z,987.98
2018-10-11T04:57:15.938Z,988.00
2018-10-11T04:58:16.088Z,987.95
2018-10-11T04:59:16.239Z,987.98
2018-10-11T05:00:16.384Z,987.98
2018-10-11T05:01:16.537Z,987.99
2018-10-11T05:02:16.681Z,988.00
2018-10-11T05:03:16.826Z,987.97
2018-10-11T05:04:16.979Z,987.96
2018-10-11T05:05:17.140Z,988.02
2018-10-11T05:06:17.275Z,987.93
2018-10-11T05:07:17.424Z,987.92
2018-10-11T05:08:17.582Z,987.93
2018-10-11T05:09:17.731Z,987.95
2018-10-11T05:10:17.878Z,987.96
2018-10-11T05:11:18.028Z,987.98
2018-10-11T05:12:18.178Z,987.99
2018-10-11T05:13:18.327Z,987.96
2018-10-11T05:14:18.475Z,987.96
2018-10-11T05:15:18.622Z,987.94
2018-10-11T05:16:18.773Z,987.95
2018-10-11T05:17:18.962Z,987.95
2018-10-11T05:18:19.071Z,987.96
2018-10-11T05:19:19.227Z,987.97
2018-10-11T05:20:19.372Z,988.03
2018-10-11T05:21:19.562Z,988.02
2018-10-11T05:22:19.673Z,988.04
2018-10-11T05:23:19.822Z,988.03
2018-10-11T05:24:19.975Z,988.07
2018-10-11T05:25:20.121Z,988.07
2018-10-11T05:26:20.271Z,988.06
2018-10-11T05:27:20.420Z,988.06
2018-10-11T05:28:20.568Z,988.11
2018-10-11T05:29:20.717Z,988.12
2018-10-11T05:30:20.868Z,988.17
2018-10-11T05:31:21.017Z,988.20
2018-10-11T05:32:21.234Z,988.20
2018-10-11T05:33:21.314Z,988.14
2018-10-11T05:34:21.463Z,988.13
2018-10-11T05:35:21.611Z,988.15
2018-10-11T05:36:21.764Z,988.11
2018-10-11T05:37:21.912Z,988.13
2018-10-11T05:38:22.060Z,988.17
2018-10-11T05:39:22.209Z,988.19
2018-10-11T05:40:22.359Z,988.14
2018-10-11T05:41:22.508Z,988.16
2018-10-11T05:42:22.657Z,988.17
2018-10-11T05:43:22.805Z,988.19
2018-10-11T05:44:22.976Z,988.24
2018-10-11T05:45:23.104Z,988.23
2018-10-11T05:46:23.256Z,988.21
2018-10-11T05:47:23.406Z,988.22
2018-10-11T05:48:23.553Z,988.22
2018-10-11T05:49:23.703Z,988.19
2018-10-11T05:50:23.915Z,988.22
2018-10-11T05:51:24.004Z,988.25
2018-10-11T05:52:24.152Z,988.20
2018-10-11T05:53:24.301Z,988.33
2018-10-11T05:54:24.451Z,988.29
2018-10-11T05:55:24.596Z,988.29
2018-10-11T05:56:24.748Z,988.29
2018-10-11T05:57:24.896Z,988.32
2018-10-11T05:58:25.044Z,988.26
2018-10-11T05:59:25.217Z,988.26
2018-10-11T06:00:25.343Z,988.27
2018-10-11T06:01:25.492Z,988.28
2018-10-11T06:02:25.640Z,988.29
2018-10-11T06:03:25.792Z,988.30
2018-10-11T06:04:25.941Z,988.27
2018-10-11T06:05:26.094Z,988.34
2018-10-11T06:06:26.241Z,988.34
2018-10-11T06:07:26.390Z,988.31
2018-10-11T06:08:26.537Z,988.33
2018-10-11T06:09:26.687Z,988.32
2018-10-11T06:10:26.836Z,988.34
2018-10-11T06:11:26.992Z,988.32
2018-10-11T06:12:27.136Z,988.35
2018-10-11T06:13:27.285Z,988.35
2018-10-11T06:14:27.435Z,988.32
2018-10-11T06:15:27.586Z,988.30
2018-10-11T06:16:27.732Z,988.29
2018-10-11T06:17:27.881Z,988.29
2018-10-11T06:18:28.032Z,988.35
2018-10-11T06:19:28.181Z,988.32
2018-10-11T06:20:28.328Z,988.34
2018-10-11T06:21:28.478Z,988.39
2018-10-11T06:22:28.626Z,988.39
2018-10-11T06:23:28.781Z,988.37
2018-10-11T06:24:28.925Z,988.41
2018-10-11T06:25:29.074Z,988.41
2018-10-11T06:26:29.223Z,988.40
2018-10-11T06:27:29.375Z,988.40
2018-10-11T06:28:29.520Z,988.44
2018-10-11T06:29:29.668Z,988.43
2018-10-11T06:30:29.818Z,988.45
2018-10-11T06:31:29.968Z,988.44
2018-10-11T06:32:30.116Z,988.52
2018-10-11T06:33:30.269Z,988.54
2018-10-11T06:34:30.417Z,988.51
2018-10-11T06:35:30.566Z,988.51
2018-10-11T06:36:30.745Z,988.56
2018-10-11T06:37:30.867Z,988.56
2018-10-11T06:38:31.015Z,988.57
2018-10-11T06:39:31.165Z,988.59
2018-10-11T06:40:31.312Z,988.58
2018-10-11T06:41:31.463Z,988.61
2018-10-11T06:42:31.722Z,988.62
2018-10-11T06:43:31.763Z,988.64
2018-10-11T06:44:31.915Z,988.64
2018-10-11T06:45:32.067Z,988.67
2018-10-11T06:46:32.209Z,988.69
2018-10-11T06:47:32.367Z,988.69
2018-10-11T06:48:32.510Z,988.71
2018-10-11T06:49:32.657Z,988.69
2018-10-11T06:50:32.809Z,988.66
2018-10-11T06:51:32.962Z,988.70
2018-10-11T06:52:33.107Z,988.70
2018-10-11T06:53:33.261Z,988.72
2018-10-11T06:54:33.403Z,988.72
2018-10-11T06:55:33.560Z,988.66
2018-10-11T06:56:33.705Z,988.67
2018-10-11T06:57:33.855Z,988.65
2018-10-11T06:58:34.006Z,988.66
2018-10-11T06:59:34.155Z,988.65
2018-10-11T07:00:34.304Z,988.67
2018-10-11T07:01:34.508Z,988.67
2018-10-11T07:02:34.605Z,988.65
2018-10-11T07:03:34.755Z,988.73
2018-10-11T07:04:34.902Z,988.67
2018-10-11T07:05:35.053Z,988.72
2018-10-11T07:06:35.201Z,988.72
2018-10-11T07:07:35.352Z,988.63
2018-10-11T07:08:35.501Z,988.62
2018-10-11T07:09:35.651Z,988.59
2018-10-11T07:10:35.801Z,988.63
2018-10-11T07:11:35.949Z,988.67
2018-10-11T07:12:36.102Z,988.67
2018-10-11T07:13:36.252Z,988.68
2018-10-11T07:14:36.401Z,988.66
2018-10-11T07:15:36.549Z,988.65
2018-10-11T07:16:36.701Z,988.64
2018-10-11T07:17:36.864Z,988.63
2018-10-11T07:18:37.022Z,988.66
2018-10-11T07:19:37.159Z,988.69
2018-10-11T07:20:37.300Z,988.65
2018-10-11T07:21:37.450Z,988.68
2018-10-11T07:22:37.602Z,988.65
2018-10-11T07:23:37.751Z,988.68
2018-10-11T07:24:37.901Z,988.70
2018-10-11T07:25:38.051Z,988.70
2018-10-11T07:26:38.201Z,988.71
2018-10-11T07:27:38.355Z,988.73
2018-10-11T07:28:38.500Z,988.73
2018-10-11T07:29:38.650Z,988.72
2018-10-11T07:30:38.799Z,988.68
2018-10-11T07:31:38.949Z,988.63
2018-10-11T07:32:39.097Z,988.65
2018-10-11T07:33:39.246Z,988.60
2018-10-11T07:34:39.483Z,988.63
2018-10-11T07:35:39.548Z,988.58
2018-10-11T07:36:39.698Z,988.60
2018-10-11T07:37:39.849Z,988.54
2018-10-11T07:38:39.996Z,988.55
2018-10-11T07:39:40.146Z,988.57
2018-10-11T07:40:40.388Z,988.58
2018-10-11T07:41:40.447Z,988.55
2018-10-11T07:42:40.596Z,988.57
2018-10-11T07:43:40.745Z,988.60
2018-10-11T07:44:40.900Z,988.61
2018-10-11T07:45:41.125Z,988.61
2018-10-11T07:46:41.203Z,988.61
2018-10-11T07:47:41.351Z,988.63
2018-10-11T07:48:41.502Z,988.68
2018-10-11T07:49:41.655Z,988.72
2018-10-11T07:50:41.803Z,988.74
2018-10-11T07:51:41.953Z,988.72
2018-10-11T07:52:42.152Z,988.76
2018-10-11T07:53:42.254Z,988.75
2018-10-11T07:54:42.403Z,988.69
2018-10-11T07:55:42.553Z,988.73
2018-10-11T07:56:42.704Z,988.68
2018-10-11T07:57:42.851Z,988.65
2018-10-11T07:58:43.011Z,988.65
2018-10-11T07:59:43.155Z,988.66
2018-10-11T08:00:43.306Z,988.66
2018-10-11T08:01:43.511Z,988.63
2018-10-11T08:02:43.606Z,988.63
2018-10-11T08:03:43.759Z,988.66
2018-10-11T08:04:43.912Z,988.66
2018-10-11T08:05:44.060Z,988.63
2018-10-11T08:06:44.208Z,988.66
2018-10-11T08:07:44.370Z,988.65
2018-10-11T08:08:44.511Z,988.62
2018-10-11T08:09:44.663Z,988.61
2018-10-11T08:10:44.828Z,988.61
2018-10-11T08:11:45.151Z,988.59
2018-10-11T08:12:45.117Z,988.58
2018-10-11T08:13:45.269Z,988.58
2018-10-11T08:14:45.433Z,988.64
2018-10-11T08:15:45.570Z,988.63
2018-10-11T08:16:45.851Z,988.64
2018-10-11T08:17:46.219Z,988.61
2018-10-11T08:18:46.054Z,988.59
2018-10-11T08:19:46.248Z,988.65
2018-10-11T08:20:46.331Z,988.65
2018-10-11T08:21:46.551Z,988.67
2018-10-11T08:22:46.631Z,988.67
2018-10-11T08:23:46.786Z,988.71
2018-10-11T08:24:47.064Z,988.69
2018-10-11T08:25:47.479Z,988.69
2018-10-11T08:26:47.292Z,988.72
2018-10-11T08:27:47.391Z,988.71
2018-10-11T08:28:47.540Z,988.72
2018-10-11T08:29:47.690Z,988.72
2018-10-11T08:30:47.842Z,988.69
2018-10-11T08:31:48.058Z,988.68
2018-10-11T08:32:48.147Z,988.70
2018-10-11T08:33:48.297Z,988.71
2018-10-11T08:34:48.453Z,988.72
2018-10-11T08:35:48.599Z,988.73
2018-10-11T08:36:48.749Z,988.76
2018-10-11T08:37:48.956Z,988.79
2018-10-11T08:38:49.057Z,988.78
2018-10-11T08:39:49.209Z,988.79
2018-10-11T08:40:49.362Z,988.76
2018-10-11T08:41:49.510Z,988.75
2018-10-11T08:42:49.663Z,988.78
2018-10-11T08:43:49.823Z,988.73
2018-10-11T08:44:49.976Z,988.72
2018-10-11T08:45:50.119Z,988.72
2018-10-11T08:46:50.268Z,988.72
2018-10-11T08:47:50.423Z,988.67
2018-10-11T08:48:50.571Z,988.75
2018-10-11T08:49:50.728Z,988.76
2018-10-11T08:50:50.898Z,988.77
2018-10-11T08:51:51.032Z,988.76
2018-10-11T08:52:51.181Z,988.71
2018-10-11T08:53:51.335Z,988.71
2018-10-11T08:54:51.528Z,988.72
2018-10-11T08:55:51.695Z,988.72
2018-10-11T08:56:51.796Z,988.70
2018-10-11T08:57:51.949Z,988.76
2018-10-11T08:58:52.100Z,988.76
2018-10-11T08:59:52.253Z,988.79
2018-10-11T09:00:52.403Z,988.82
2018-10-11T09:01:52.556Z,988.78
2018-10-11T09:02:52.711Z,988.80
2018-10-11T09:03:53.089Z,988.83
2018-10-11T09:04:53.015Z,988.82
2018-10-11T09:05:53.167Z,988.78
2018-10-11T09:06:53.319Z,988.78
2018-10-11T09:07:53.472Z,988.79
2018-10-11T09:08:53.626Z,988.79
2018-10-11T09:09:53.915Z,988.80
2018-10-11T09:10:53.952Z,988.82
2018-10-11T09:11:54.085Z,988.86
2018-10-11T09:12:54.239Z,988.88
2018-10-11T09:13:54.391Z,988.89
2018-10-11T09:14:54.543Z,988.92
2018-10-11T09:15:54.698Z,988.95
2018-10-11T09:16:54.850Z,988.95
2018-10-11T09:17:55.004Z,988.91
2018-10-11T09:18:55.157Z,988.97
2018-10-11T09:19:55.315Z,988.99
2018-10-11T09:20:55.465Z,988.99
2018-10-11T09:21:55.618Z,989.00
2018-10-11T09:22:55.770Z,988.97
2018-10-11T09:23:55.924Z,988.97
2018-10-11T09:24:56.076Z,988.98
2018-10-11T09:25:56.227Z,988.99
2018-10-11T09:26:56.382Z,989.05
2018-10-11T09:27:56.533Z,989.08
2018-10-11T09:28:56.689Z,989.11
2018-10-11T09:29:56.841Z,989.16
2018-10-11T09:30:56.996Z,989.16
2018-10-11T09:31:57.149Z,989.19
2018-10-11T09:32:57.301Z,989.20
2018-10-11T09:33:57.456Z,989.19
2018-10-11T09:34:57.610Z,989.22
2018-10-11T09:35:57.765Z,989.21
2018-10-11T09:36:57.919Z,989.20
2018-10-11T09:37:58.070Z,989.17
2018-10-11T09:38:58.226Z,989.19
2018-10-11T09:39:58.379Z,989.17
2018-10-11T09:40:58.531Z,989.22
2018-10-11T09:41:58.685Z,989.18
2018-10-11T09:42:58.845Z,989.15
2018-10-11T09:43:58.992Z,989.15
2018-10-11T09:44:59.147Z,989.07
2018-10-11T09:45:59.301Z,989.10
2018-10-11T09:46:59.455Z,989.12
2018-10-11T09:47:59.608Z,989.15
2018-10-11T09:48:59.768Z,989.16
2018-10-11T09:49:59.922Z,989.16
2018-10-11T09:51:00.077Z,989.17
2018-10-11T09:52:00.231Z,989.18
2018-10-11T09:53:00.384Z,989.22
2018-10-11T09:54:00.545Z,989.25
2018-10-11T09:55:00.702Z,989.27
2018-10-11T09:56:01.315Z,989.32
2018-10-11T09:57:01.001Z,989.24
2018-10-11T09:58:01.160Z,989.21
2018-10-11T09:59:01.312Z,989.22
2018-10-11T10:00:01.468Z,989.20
2018-10-11T10:01:01.622Z,989.19
2018-10-11T10:02:01.828Z,989.25
2018-10-11T10:03:01.939Z,989.27
2018-10-11T10:04:02.096Z,989.23
2018-10-11T10:05:02.243Z,989.21
2018-10-11T10:06:02.407Z,989.20
2018-10-11T10:07:02.552Z,989.20
2018-10-11T10:08:02.707Z,989.23
2018-10-11T10:09:02.865Z,989.19
2018-10-11T10:10:03.115Z,989.22
2018-10-11T10:11:03.171Z,989.18
2018-10-11T10:12:03.328Z,989.16
2018-10-11T10:13:03.487Z,989.18
2018-10-11T10:14:03.642Z,989.18
2018-10-11T10:15:03.797Z,989.15
2018-10-11T10:16:03.954Z,989.12
2018-10-11T10:17:04.107Z,989.11
2018-10-11T10:18:04.258Z,989.13
2018-10-11T10:19:04.418Z,989.09
2018-10-11T10:20:04.577Z,989.11
2018-10-11T10:21:04.790Z,989.07
2018-10-11T10:22:04.889Z,989.12
2018-10-11T10:23:05.041Z,989.14
2018-10-11T10:24:05.200Z,989.11
2018-10-11T10:25:05.353Z,989.13
2018-10-11T10:26:05.512Z,989.13
2018-10-11T10:27:05.757Z,989.14
2018-10-11T10:28:05.832Z,989.12
2018-10-11T10:29:05.986Z,989.10
2018-10-11T10:30:06.131Z,989.11
2018-10-11T10:31:06.305Z,989.11
2018-10-11T10:32:06.474Z,989.15
2018-10-11T10:33:06.629Z,989.14
2018-10-11T10:34:06.852Z,989.14
2018-10-11T10:35:06.935Z,989.09
2018-10-11T10:36:07.090Z,989.05
2018-10-11T10:37:07.261Z,989.05
2018-10-11T10:38:07.421Z,989.00
2018-10-11T10:39:07.560Z,988.98
2018-10-11T10:40:07.776Z,988.97
2018-10-11T10:41:07.872Z,988.98
2018-10-11T10:42:08.026Z,988.99
2018-10-11T10:43:08.182Z,989.02
2018-10-11T10:44:08.341Z,989.03
2018-10-11T10:45:08.499Z,988.99
2018-10-11T10:46:08.653Z,989.01
2018-10-11T10:47:08.810Z,988.98
2018-10-11T10:48:08.968Z,988.98
2018-10-11T10:49:09.126Z,988.97
2018-10-11T10:50:09.281Z,988.95
2018-10-11T10:51:09.439Z,989.01
2018-10-11T10:52:09.593Z,988.99
2018-10-11T10:53:09.755Z,989.03
2018-10-11T10:54:09.949Z,989.06
2018-10-11T10:55:10.065Z,989.05
2018-10-11T10:56:10.222Z,989.10
2018-10-11T10:57:10.383Z,989.12
2018-10-11T10:58:10.541Z,989.10
2018-10-11T10:59:10.697Z,989.12
2018-10-11T11:00:10.853Z,989.07
2018-10-11T11:01:11.010Z,989.08
2018-10-11T11:02:11.166Z,989.13
2018-10-11T11:03:11.326Z,989.10
2018-10-11T11:04:11.487Z,989.10
2018-10-11T11:05:11.645Z,989.08
2018-10-11T11:06:11.807Z,989.05
2018-10-11T11:07:11.992Z,989.04
2018-10-11T11:08:12.119Z,989.04
2018-10-11T11:09:12.276Z,989.03
2018-10-11T11:10:12.436Z,989.03
2018-10-11T11:11:12.597Z,989.04
2018-10-11T11:12:12.752Z,989.01
2018-10-11T11:13:13.013Z,988.99
2018-10-11T11:14:13.068Z,988.97
2018-10-11T11:15:13.225Z,988.94
2018-10-11T11:16:13.382Z,988.91
2018-10-11T11:17:13.536Z,988.87
2018-10-11T11:18:13.696Z,988.86
2018-10-11T11:19:13.855Z,988.79
2018-10-11T11:20:14.012Z,988.84
2018-10-11T11:21:14.166Z,988.79
2018-10-11T11:22:14.322Z,988.74
2018-10-11T11:23:14.480Z,988.76
2018-10-11T11:24:14.644Z,988.71
2018-10-11T11:25:14.928Z,988.70
2018-10-11T11:26:14.955Z,988.66
2018-10-11T11:27:15.115Z,988.67
2018-10-11T11:28:15.280Z,988.66
2018-10-11T11:29:15.429Z,988.61
2018-10-11T11:30:15.587Z,988.60
2018-10-11T11:31:15.745Z,988.57
2018-10-11T11:32:15.903Z,988.60
2018-10-11T11:33:16.064Z,988.66
2018-10-11T11:34:16.218Z,988.63
2018-10-11T11:35:16.376Z,988.66
2018-10-11T11:36:16.536Z,988.66
2018-10-11T11:37:16.694Z,988.63
2018-10-11T11:38:16.854Z,988.63
2018-10-11T11:39:17.010Z,988.65
2018-10-11T11:40:17.165Z,988.63
2018-10-11T11:41:17.322Z,988.65
2018-10-11T11:42:17.480Z,988.67
2018-10-11T11:43:17.639Z,988.70
2018-10-11T11:44:17.797Z,988.70
2018-10-11T11:45:17.957Z,988.74
2018-10-11T11:46:18.114Z,988.75
2018-10-11T11:47:18.271Z,988.75
2018-10-11T11:48:18.440Z,988.76
2018-10-11T11:49:18.590Z,988.73
2018-10-11T11:50:18.757Z,988.75
2018-10-11T11:51:18.904Z,988.77
2018-10-11T11:52:19.063Z,988.79
2018-10-11T11:53:19.220Z,988.72
2018-10-11T11:54:19.378Z,988.72
2018-10-11T11:55:19.542Z,988.71
2018-10-11T11:56:19.700Z,988.73
2018-10-11T11:57:19.858Z,988.75
2018-10-11T11:58:20.017Z,988.76
2018-10-11T11:59:20.175Z,988.74
2018-10-11T12:00:20.333Z,988.71
2018-10-11T12:01:20.494Z,988.73
2018-10-11T12:02:20.652Z,988.68
2018-10-11T12:03:20.811Z,988.67
2018-10-11T12:04:20.967Z,988.68
2018-10-11T12:05:21.130Z,988.65
2018-10-11T12:06:21.288Z,988.68
2018-10-11T12:07:21.445Z,988.65
2018-10-11T12:08:21.606Z,988.67
2018-10-11T12:09:21.764Z,988.64
2018-10-11T12:10:21.928Z,988.63
2018-10-11T12:11:22.088Z,988.62
2018-10-11T12:12:22.239Z,988.62
2018-10-11T12:13:22.397Z,988.60
2018-10-11T12:14:22.555Z,988.60
2018-10-11T12:15:22.714Z,988.59
2018-10-11T12:16:22.871Z,988.62
2018-10-11T12:17:23.033Z,988.63
2018-10-11T12:18:23.193Z,988.62
2018-10-11T12:19:23.350Z,988.58
2018-10-11T12:20:23.511Z,988.62
2018-10-11T12:21:23.670Z,988.60
2018-10-11T12:22:23.828Z,988.59
2018-10-11T12:23:23.987Z,988.60
2018-10-11T12:24:24.149Z,988.57
2018-10-11T12:25:24.310Z,988.58
2018-10-11T12:26:24.530Z,988.54
2018-10-11T12:27:24.627Z,988.55
2018-10-11T12:28:24.882Z,988.50
2018-10-11T12:29:24.949Z,988.50
2018-10-11T12:30:25.109Z,988.50